sensor_id;sensor_type;location;lat;lon;timestamp;temperature;humidity
24638;DHT22;12773;50.162;8.548;2023-07-09T00:01:52;21.50;99.90
24638;DHT22;12773;50.162;8.548;2023-07-09T00:04:40;21.50;99.90
24638;DHT22;12773;50.162;8.548;2023-07-09T00:07:32;21.40;99.90
24638;DHT22;12773;50.162;8.548;2023-07-09T00:10:21;21.30;99.90
24638;DHT22;12773;50.162;8.548;2023-07-09T00:13:08;21.20;99.90
24638;DHT22;12773;50.162;8.548;2023-07-09T00:15:59;21.20;99.90
24638;DHT22;12773;50.162;8.548;2023-07-09T00:18:48;21.20;99.90
24638;DHT22;12773;50.162;8.548;2023-07-09T00:21:36;21.20;99.90
24638;DHT22;12773;50.162;8.548;2023-07-09T00:24:23;21.10;99.90
24638;DHT22;12773;50.162;8.548;2023-07-09T00:27:12;21.20;99.90
24638;DHT22;12773;50.162;8.548;2023-07-09T00:30:01;21.20;99.90
24638;DHT22;12773;50.162;8.548;2023-07-09T00:32:50;21.20;99.90
24638;DHT22;12773;50.162;8.548;2023-07-09T00:35:45;21.20;99.90
24638;DHT22;12773;50.162;8.548;2023-07-09T00:38:28;21.10;99.90
24638;DHT22;12773;50.162;8.548;2023-07-09T00:41:18;21.00;99.90
24638;DHT22;12773;50.162;8.548;2023-07-09T00:44:29;21.00;99.90
24638;DHT22;12773;50.162;8.548;2023-07-09T00:47:42;21.10;99.90
24638;DHT22;12773;50.162;8.548;2023-07-09T00:50:37;21.00;99.90
24638;DHT22;12773;50.162;8.548;2023-07-09T00:53:29;20.80;99.90
24638;DHT22;12773;50.162;8.548;2023-07-09T00:56:38;20.70;99.90
24638;DHT22;12773;50.162;8.548;2023-07-09T00:59:13;20.80;99.90
24638;DHT22;12773;50.162;8.548;2023-07-09T01:02:01;20.70;99.90
24638;DHT22;12773;50.162;8.548;2023-07-09T01:04:51;20.70;99.90
24638;DHT22;12773;50.162;8.548;2023-07-09T01:07:41;20.70;99.90
24638;DHT22;12773;50.162;8.548;2023-07-09T01:10:30;20.80;99.90
24638;DHT22;12773;50.162;8.548;2023-07-09T01:13:19;20.90;99.90
24638;DHT22;12773;50.162;8.548;2023-07-09T01:16:06;20.90;99.90
24638;DHT22;12773;50.162;8.548;2023-07-09T01:18:54;20.70;99.90
24638;DHT22;12773;50.162;8.548;2023-07-09T01:21:41;20.70;99.90
24638;DHT22;12773;50.162;8.548;2023-07-09T01:24:49;20.60;99.90
24638;DHT22;12773;50.162;8.548;2023-07-09T01:27:42;20.60;99.90
24638;DHT22;12773;50.162;8.548;2023-07-09T01:30:33;20.50;99.90
24638;DHT22;12773;50.162;8.548;2023-07-09T01:33:22;20.50;99.90
24638;DHT22;12773;50.162;8.548;2023-07-09T01:36:16;20.50;99.90
24638;DHT22;12773;50.162;8.548;2023-07-09T01:39:04;20.40;99.90
24638;DHT22;12773;50.162;8.548;2023-07-09T01:41:52;20.40;99.90
24638;DHT22;12773;50.162;8.548;2023-07-09T01:44:40;20.40;99.90
24638;DHT22;12773;50.162;8.548;2023-07-09T01:47:27;20.50;99.90
24638;DHT22;12773;50.162;8.548;2023-07-09T01:50:15;20.50;99.90
24638;DHT22;12773;50.162;8.548;2023-07-09T01:53:05;20.50;99.90
24638;DHT22;12773;50.162;8.548;2023-07-09T01:55:55;20.50;99.90
24638;DHT22;12773;50.162;8.548;2023-07-09T01:58:42;20.60;99.90
24638;DHT22;12773;50.162;8.548;2023-07-09T02:01:30;20.70;99.90
24638;DHT22;12773;50.162;8.548;2023-07-09T02:04:20;20.70;99.90
24638;DHT22;12773;50.162;8.548;2023-07-09T02:07:08;20.70;99.90
24638;DHT22;12773;50.162;8.548;2023-07-09T02:09:55;20.70;99.90
24638;DHT22;12773;50.162;8.548;2023-07-09T02:12:43;20.70;99.90
24638;DHT22;12773;50.162;8.548;2023-07-09T02:15:30;20.70;99.90
24638;DHT22;12773;50.162;8.548;2023-07-09T02:18:18;20.70;99.90
24638;DHT22;12773;50.162;8.548;2023-07-09T02:21:05;20.70;99.90
24638;DHT22;12773;50.162;8.548;2023-07-09T02:23:53;20.80;99.90
24638;DHT22;12773;50.162;8.548;2023-07-09T02:26:42;20.90;99.90
24638;DHT22;12773;50.162;8.548;2023-07-09T02:29:30;20.90;99.90
24638;DHT22;12773;50.162;8.548;2023-07-09T02:32:22;20.90;99.90
24638;DHT22;12773;50.162;8.548;2023-07-09T02:35:11;20.90;99.90
24638;DHT22;12773;50.162;8.548;2023-07-09T02:37:59;21.00;99.90
24638;DHT22;12773;50.162;8.548;2023-07-09T02:40:46;21.00;99.90
24638;DHT22;12773;50.162;8.548;2023-07-09T02:43:34;20.90;99.90
24638;DHT22;12773;50.162;8.548;2023-07-09T02:46:21;21.00;99.90
24638;DHT22;12773;50.162;8.548;2023-07-09T02:49:10;20.90;99.90
24638;DHT22;12773;50.162;8.548;2023-07-09T02:51:58;20.70;99.90
24638;DHT22;12773;50.162;8.548;2023-07-09T02:54:46;20.60;99.90
24638;DHT22;12773;50.162;8.548;2023-07-09T02:57:34;20.50;99.90
24638;DHT22;12773;50.162;8.548;2023-07-09T03:00:21;20.50;99.90
24638;DHT22;12773;50.162;8.548;2023-07-09T03:03:09;20.40;99.90
24638;DHT22;12773;50.162;8.548;2023-07-09T03:05:57;20.50;99.90
24638;DHT22;12773;50.162;8.548;2023-07-09T03:08:44;20.30;99.90
24638;DHT22;12773;50.162;8.548;2023-07-09T03:11:34;20.30;99.90
24638;DHT22;12773;50.162;8.548;2023-07-09T03:14:22;20.20;99.90
24638;DHT22;12773;50.162;8.548;2023-07-09T03:17:10;20.10;99.90
24638;DHT22;12773;50.162;8.548;2023-07-09T03:19:57;20.00;99.90
24638;DHT22;12773;50.162;8.548;2023-07-09T03:22:45;19.90;99.90
24638;DHT22;12773;50.162;8.548;2023-07-09T03:25:32;19.80;99.90
24638;DHT22;12773;50.162;8.548;2023-07-09T03:28:20;19.70;99.90
24638;DHT22;12773;50.162;8.548;2023-07-09T03:31:08;19.70;99.90
24638;DHT22;12773;50.162;8.548;2023-07-09T03:33:56;19.60;99.90
24638;DHT22;12773;50.162;8.548;2023-07-09T03:36:44;19.70;99.90
24638;DHT22;12773;50.162;8.548;2023-07-09T03:39:32;19.70;99.90
24638;DHT22;12773;50.162;8.548;2023-07-09T03:42:19;19.60;99.90
24638;DHT22;12773;50.162;8.548;2023-07-09T03:45:07;19.50;99.90
24638;DHT22;12773;50.162;8.548;2023-07-09T03:47:55;19.60;99.90
24638;DHT22;12773;50.162;8.548;2023-07-09T03:50:45;19.50;99.90
24638;DHT22;12773;50.162;8.548;2023-07-09T03:53:33;19.50;99.90
24638;DHT22;12773;50.162;8.548;2023-07-09T03:56:20;19.60;99.90
24638;DHT22;12773;50.162;8.548;2023-07-09T03:59:08;19.60;99.90
24638;DHT22;12773;50.162;8.548;2023-07-09T04:01:55;19.60;99.90
24638;DHT22;12773;50.162;8.548;2023-07-09T04:04:43;19.60;99.90
24638;DHT22;12773;50.162;8.548;2023-07-09T04:07:31;19.70;99.90
24638;DHT22;12773;50.162;8.548;2023-07-09T04:10:19;19.80;99.90
24638;DHT22;12773;50.162;8.548;2023-07-09T04:13:07;19.80;99.90
24638;DHT22;12773;50.162;8.548;2023-07-09T04:15:56;19.90;99.90
24638;DHT22;12773;50.162;8.548;2023-07-09T04:18:44;19.90;99.90
24638;DHT22;12773;50.162;8.548;2023-07-09T04:21:31;19.90;99.90
24638;DHT22;12773;50.162;8.548;2023-07-09T04:24:20;19.90;99.90
24638;DHT22;12773;50.162;8.548;2023-07-09T04:27:08;20.10;99.90
24638;DHT22;12773;50.162;8.548;2023-07-09T04:29:55;20.20;99.90
24638;DHT22;12773;50.162;8.548;2023-07-09T04:32:44;20.40;99.90
24638;DHT22;12773;50.162;8.548;2023-07-09T04:35:31;20.60;99.90
24638;DHT22;12773;50.162;8.548;2023-07-09T04:38:19;20.60;99.90
24638;DHT22;12773;50.162;8.548;2023-07-09T04:41:06;20.70;99.90
24638;DHT22;12773;50.162;8.548;2023-07-09T04:43:54;20.80;99.90
24638;DHT22;12773;50.162;8.548;2023-07-09T04:46:41;20.80;99.90
24638;DHT22;12773;50.162;8.548;2023-07-09T04:49:29;20.90;99.90
24638;DHT22;12773;50.162;8.548;2023-07-09T04:52:16;21.00;99.90
24638;DHT22;12773;50.162;8.548;2023-07-09T04:55:04;21.10;99.90
24638;DHT22;12773;50.162;8.548;2023-07-09T04:57:54;21.20;99.90
24638;DHT22;12773;50.162;8.548;2023-07-09T05:00:42;21.20;99.90
24638;DHT22;12773;50.162;8.548;2023-07-09T05:03:29;21.20;99.90
24638;DHT22;12773;50.162;8.548;2023-07-09T05:06:17;21.30;99.90
24638;DHT22;12773;50.162;8.548;2023-07-09T05:09:05;21.50;99.90
24638;DHT22;12773;50.162;8.548;2023-07-09T05:11:52;21.60;99.90
24638;DHT22;12773;50.162;8.548;2023-07-09T05:14:40;21.80;99.90
24638;DHT22;12773;50.162;8.548;2023-07-09T05:17:28;22.00;99.90
24638;DHT22;12773;50.162;8.548;2023-07-09T05:20:16;22.10;99.90
24638;DHT22;12773;50.162;8.548;2023-07-09T05:23:03;22.30;99.90
24638;DHT22;12773;50.162;8.548;2023-07-09T05:26:00;22.40;99.90
24638;DHT22;12773;50.162;8.548;2023-07-09T05:28:44;22.50;99.90
24638;DHT22;12773;50.162;8.548;2023-07-09T05:31:32;22.70;99.90
24638;DHT22;12773;50.162;8.548;2023-07-09T05:34:20;22.80;99.90
24638;DHT22;12773;50.162;8.548;2023-07-09T05:37:07;23.00;99.90
24638;DHT22;12773;50.162;8.548;2023-07-09T05:39:55;23.20;99.90
24638;DHT22;12773;50.162;8.548;2023-07-09T05:42:43;23.40;99.90
24638;DHT22;12773;50.162;8.548;2023-07-09T05:45:31;23.50;99.90
24638;DHT22;12773;50.162;8.548;2023-07-09T05:48:18;23.70;99.90
24638;DHT22;12773;50.162;8.548;2023-07-09T05:51:06;23.90;99.90
24638;DHT22;12773;50.162;8.548;2023-07-09T05:53:53;23.90;99.90
24638;DHT22;12773;50.162;8.548;2023-07-09T05:56:41;24.00;99.90
24638;DHT22;12773;50.162;8.548;2023-07-09T05:59:28;24.20;99.90
24638;DHT22;12773;50.162;8.548;2023-07-09T06:02:18;24.40;99.90
24638;DHT22;12773;50.162;8.548;2023-07-09T06:05:07;24.50;99.90
24638;DHT22;12773;50.162;8.548;2023-07-09T06:07:56;24.50;99.90
24638;DHT22;12773;50.162;8.548;2023-07-09T06:11:00;24.50;99.90
24638;DHT22;12773;50.162;8.548;2023-07-09T06:13:48;24.50;99.90
24638;DHT22;12773;50.162;8.548;2023-07-09T06:16:55;24.70;99.90
24638;DHT22;12773;50.162;8.548;2023-07-09T06:19:42;24.90;99.90
24638;DHT22;12773;50.162;8.548;2023-07-09T06:22:30;25.10;99.90
24638;DHT22;12773;50.162;8.548;2023-07-09T06:25:18;25.10;99.90
24638;DHT22;12773;50.162;8.548;2023-07-09T06:31:06;25.40;99.90
24638;DHT22;12773;50.162;8.548;2023-07-09T06:33:54;25.50;99.90
24638;DHT22;12773;50.162;8.548;2023-07-09T06:36:42;25.70;99.90
24638;DHT22;12773;50.162;8.548;2023-07-09T06:39:31;25.70;99.90
24638;DHT22;12773;50.162;8.548;2023-07-09T06:42:18;25.90;99.90
24638;DHT22;12773;50.162;8.548;2023-07-09T06:45:06;26.00;99.90
24638;DHT22;12773;50.162;8.548;2023-07-09T06:47:53;26.00;99.90
24638;DHT22;12773;50.162;8.548;2023-07-09T06:50:41;26.20;99.90
24638;DHT22;12773;50.162;8.548;2023-07-09T06:53:29;26.20;99.90
24638;DHT22;12773;50.162;8.548;2023-07-09T06:56:17;26.30;99.90
24638;DHT22;12773;50.162;8.548;2023-07-09T06:59:05;26.40;99.90
24638;DHT22;12773;50.162;8.548;2023-07-09T07:01:52;26.70;99.90
24638;DHT22;12773;50.162;8.548;2023-07-09T07:04:40;26.70;99.90
24638;DHT22;12773;50.162;8.548;2023-07-09T07:07:28;26.70;99.90
24638;DHT22;12773;50.162;8.548;2023-07-09T07:10:16;26.70;99.90
24638;DHT22;12773;50.162;8.548;2023-07-09T07:13:03;26.80;99.90
24638;DHT22;12773;50.162;8.548;2023-07-09T07:15:51;26.90;99.90
24638;DHT22;12773;50.162;8.548;2023-07-09T07:18:39;27.00;99.90
24638;DHT22;12773;50.162;8.548;2023-07-09T07:21:27;27.00;99.90
24638;DHT22;12773;50.162;8.548;2023-07-09T07:24:14;27.00;99.90
24638;DHT22;12773;50.162;8.548;2023-07-09T07:27:02;26.90;99.90
24638;DHT22;12773;50.162;8.548;2023-07-09T07:29:50;26.90;99.90
24638;DHT22;12773;50.162;8.548;2023-07-09T07:32:39;26.80;99.90
24638;DHT22;12773;50.162;8.548;2023-07-09T07:35:27;26.80;99.90
24638;DHT22;12773;50.162;8.548;2023-07-09T07:38:14;26.80;99.90
24638;DHT22;12773;50.162;8.548;2023-07-09T07:41:02;26.90;99.90
24638;DHT22;12773;50.162;8.548;2023-07-09T07:43:50;27.00;99.90
24638;DHT22;12773;50.162;8.548;2023-07-09T07:46:37;27.00;99.90
24638;DHT22;12773;50.162;8.548;2023-07-09T07:49:26;27.10;99.90
24638;DHT22;12773;50.162;8.548;2023-07-09T07:52:14;27.10;99.90
24638;DHT22;12773;50.162;8.548;2023-07-09T07:55:01;27.20;99.90
24638;DHT22;12773;50.162;8.548;2023-07-09T07:57:49;27.40;99.90
24638;DHT22;12773;50.162;8.548;2023-07-09T08:00:36;27.70;99.90
24638;DHT22;12773;50.162;8.548;2023-07-09T08:03:29;27.80;99.90
24638;DHT22;12773;50.162;8.548;2023-07-09T08:06:17;28.00;99.20
24638;DHT22;12773;50.162;8.548;2023-07-09T08:09:05;28.20;98.80
24638;DHT22;12773;50.162;8.548;2023-07-09T08:11:52;28.50;97.60
24638;DHT22;12773;50.162;8.548;2023-07-09T08:14:42;28.60;97.90
24638;DHT22;12773;50.162;8.548;2023-07-09T08:17:30;28.70;97.70
24638;DHT22;12773;50.162;8.548;2023-07-09T08:20:18;28.90;96.80
24638;DHT22;12773;50.162;8.548;2023-07-09T08:23:05;29.10;96.90
24638;DHT22;12773;50.162;8.548;2023-07-09T08:26:00;29.30;97.00
24638;DHT22;12773;50.162;8.548;2023-07-09T08:28:42;29.10;96.60
24638;DHT22;12773;50.162;8.548;2023-07-09T08:31:30;29.10;96.20
24638;DHT22;12773;50.162;8.548;2023-07-09T08:34:18;29.00;95.40
24638;DHT22;12773;50.162;8.548;2023-07-09T08:37:07;29.00;94.90
24638;DHT22;12773;50.162;8.548;2023-07-09T08:39:55;29.10;95.00
24638;DHT22;12773;50.162;8.548;2023-07-09T08:42:49;29.10;94.40
24638;DHT22;12773;50.162;8.548;2023-07-09T08:45:56;29.40;93.80
24638;DHT22;12773;50.162;8.548;2023-07-09T08:48:39;29.30;92.80
24638;DHT22;12773;50.162;8.548;2023-07-09T08:51:37;29.30;92.80
24638;DHT22;12773;50.162;8.548;2023-07-09T08:54:31;29.50;93.50
24638;DHT22;12773;50.162;8.548;2023-07-09T08:57:27;29.60;92.30
24638;DHT22;12773;50.162;8.548;2023-07-09T09:00:27;29.60;92.80
24638;DHT22;12773;50.162;8.548;2023-07-09T09:06:01;29.70;92.30
24638;DHT22;12773;50.162;8.548;2023-07-09T09:09:05;29.80;92.30
24638;DHT22;12773;50.162;8.548;2023-07-09T09:11:58;30.00;93.00
24638;DHT22;12773;50.162;8.548;2023-07-09T09:14:52;30.20;93.20
24638;DHT22;12773;50.162;8.548;2023-07-09T09:17:39;30.30;91.90
24638;DHT22;12773;50.162;8.548;2023-07-09T09:20:27;30.40;91.50
24638;DHT22;12773;50.162;8.548;2023-07-09T09:23:15;30.50;91.50
24638;DHT22;12773;50.162;8.548;2023-07-09T09:26:05;30.80;92.20
24638;DHT22;12773;50.162;8.548;2023-07-09T09:28:54;30.90;90.70
24638;DHT22;12773;50.162;8.548;2023-07-09T09:31:48;30.90;90.10
24638;DHT22;12773;50.162;8.548;2023-07-09T09:34:36;31.00;90.50
24638;DHT22;12773;50.162;8.548;2023-07-09T09:37:27;31.30;89.30
24638;DHT22;12773;50.162;8.548;2023-07-09T09:40:17;31.50;90.40
24638;DHT22;12773;50.162;8.548;2023-07-09T09:43:17;31.70;89.70
24638;DHT22;12773;50.162;8.548;2023-07-09T09:46:07;31.90;88.20
24638;DHT22;12773;50.162;8.548;2023-07-09T09:48:56;32.00;87.10
24638;DHT22;12773;50.162;8.548;2023-07-09T09:51:46;32.20;86.30
24638;DHT22;12773;50.162;8.548;2023-07-09T09:54:34;32.10;84.30
24638;DHT22;12773;50.162;8.548;2023-07-09T09:57:23;32.30;84.20
24638;DHT22;12773;50.162;8.548;2023-07-09T10:00:15;32.40;82.10
24638;DHT22;12773;50.162;8.548;2023-07-09T10:03:04;32.50;81.40
24638;DHT22;12773;50.162;8.548;2023-07-09T10:05:57;32.70;80.90
24638;DHT22;12773;50.162;8.548;2023-07-09T10:09:08;32.90;78.50
24638;DHT22;12773;50.162;8.548;2023-07-09T10:14:50;33.30;77.40
24638;DHT22;12773;50.162;8.548;2023-07-09T10:17:43;33.50;76.50
24638;DHT22;12773;50.162;8.548;2023-07-09T10:23:26;34.00;74.00
24638;DHT22;12773;50.162;8.548;2023-07-09T10:35:50;34.80;69.30
24638;DHT22;12773;50.162;8.548;2023-07-09T10:39:28;35.00;69.20
24638;DHT22;12773;50.162;8.548;2023-07-09T10:41:30;35.00;68.10
24638;DHT22;12773;50.162;8.548;2023-07-09T10:44:38;34.90;65.60
24638;DHT22;12773;50.162;8.548;2023-07-09T10:47:44;34.90;64.50
24638;DHT22;12773;50.162;8.548;2023-07-09T10:50:39;35.20;64.10
24638;DHT22;12773;50.162;8.548;2023-07-09T10:53:43;35.00;63.90
24638;DHT22;12773;50.162;8.548;2023-07-09T10:56:34;34.80;64.30
24638;DHT22;12773;50.162;8.548;2023-07-09T10:59:36;35.10;64.20
24638;DHT22;12773;50.162;8.548;2023-07-09T11:02:29;35.20;63.60
24638;DHT22;12773;50.162;8.548;2023-07-09T11:05:16;35.20;61.70
24638;DHT22;12773;50.162;8.548;2023-07-09T11:08:16;35.10;62.10
24638;DHT22;12773;50.162;8.548;2023-07-09T11:11:07;35.10;60.80
24638;DHT22;12773;50.162;8.548;2023-07-09T11:14:00;35.30;60.60
24638;DHT22;12773;50.162;8.548;2023-07-09T11:16:48;35.60;60.40
24638;DHT22;12773;50.162;8.548;2023-07-09T11:19:53;35.70;60.50
24638;DHT22;12773;50.162;8.548;2023-07-09T11:22:39;35.80;60.10
24638;DHT22;12773;50.162;8.548;2023-07-09T11:25:31;35.70;59.50
24638;DHT22;12773;50.162;8.548;2023-07-09T11:28:19;36.10;59.80
24638;DHT22;12773;50.162;8.548;2023-07-09T11:31:33;36.50;59.40
24638;DHT22;12773;50.162;8.548;2023-07-09T11:37:11;36.80;57.40
24638;DHT22;12773;50.162;8.548;2023-07-09T11:39:54;36.90;57.70
24638;DHT22;12773;50.162;8.548;2023-07-09T11:42:58;36.80;56.70
24638;DHT22;12773;50.162;8.548;2023-07-09T11:45:45;36.80;55.20
24638;DHT22;12773;50.162;8.548;2023-07-09T11:48:33;37.00;54.80
24638;DHT22;12773;50.162;8.548;2023-07-09T11:51:34;37.20;54.90
24638;DHT22;12773;50.162;8.548;2023-07-09T11:54:18;37.40;54.30
24638;DHT22;12773;50.162;8.548;2023-07-09T11:57:12;37.80;53.40
24638;DHT22;12773;50.162;8.548;2023-07-09T12:00:00;37.70;52.60
24638;DHT22;12773;50.162;8.548;2023-07-09T12:02:48;37.80;52.90
24638;DHT22;12773;50.162;8.548;2023-07-09T12:05:37;38.20;52.20
24638;DHT22;12773;50.162;8.548;2023-07-09T12:08:36;38.20;51.10
24638;DHT22;12773;50.162;8.548;2023-07-09T12:11:27;37.70;51.00
24638;DHT22;12773;50.162;8.548;2023-07-09T12:14:17;37.50;50.40
24638;DHT22;12773;50.162;8.548;2023-07-09T12:17:07;37.30;49.70
24638;DHT22;12773;50.162;8.548;2023-07-09T12:19:55;37.60;50.80
24638;DHT22;12773;50.162;8.548;2023-07-09T12:22:44;37.90;50.50
24638;DHT22;12773;50.162;8.548;2023-07-09T12:25:32;37.80;50.20
24638;DHT22;12773;50.162;8.548;2023-07-09T12:28:20;37.70;50.00
24638;DHT22;12773;50.162;8.548;2023-07-09T12:31:15;37.80;49.70
24638;DHT22;12773;50.162;8.548;2023-07-09T12:34:03;37.80;48.30
24638;DHT22;12773;50.162;8.548;2023-07-09T12:36:51;37.60;48.60
24638;DHT22;12773;50.162;8.548;2023-07-09T12:39:40;37.80;49.00
24638;DHT22;12773;50.162;8.548;2023-07-09T12:42:32;37.80;48.60
24638;DHT22;12773;50.162;8.548;2023-07-09T12:45:21;38.00;49.40
24638;DHT22;12773;50.162;8.548;2023-07-09T12:48:10;38.30;48.80
24638;DHT22;12773;50.162;8.548;2023-07-09T12:51:00;38.30;48.80
24638;DHT22;12773;50.162;8.548;2023-07-09T12:53:48;38.30;47.70
24638;DHT22;12773;50.162;8.548;2023-07-09T12:56:36;38.30;48.10
24638;DHT22;12773;50.162;8.548;2023-07-09T12:59:36;38.50;47.40
24638;DHT22;12773;50.162;8.548;2023-07-09T13:02:20;39.10;48.40
24638;DHT22;12773;50.162;8.548;2023-07-09T13:05:19;39.60;47.00
24638;DHT22;12773;50.162;8.548;2023-07-09T13:08:11;40.00;45.50
24638;DHT22;12773;50.162;8.548;2023-07-09T13:11:01;39.40;44.30
24638;DHT22;12773;50.162;8.548;2023-07-09T13:13:57;39.30;44.80
24638;DHT22;12773;50.162;8.548;2023-07-09T13:16:48;39.10;43.80
24638;DHT22;12773;50.162;8.548;2023-07-09T13:19:36;39.10;44.90
24638;DHT22;12773;50.162;8.548;2023-07-09T13:22:24;39.10;44.50
24638;DHT22;12773;50.162;8.548;2023-07-09T13:25:12;39.50;43.50
24638;DHT22;12773;50.162;8.548;2023-07-09T13:27:59;39.80;43.90
24638;DHT22;12773;50.162;8.548;2023-07-09T13:30:56;39.60;42.10
24638;DHT22;12773;50.162;8.548;2023-07-09T13:33:45;39.30;42.60
24638;DHT22;12773;50.162;8.548;2023-07-09T13:36:33;38.90;43.40
24638;DHT22;12773;50.162;8.548;2023-07-09T13:39:21;38.90;44.10
24638;DHT22;12773;50.162;8.548;2023-07-09T13:42:15;38.80;43.40
24638;DHT22;12773;50.162;8.548;2023-07-09T13:45:04;38.80;43.80
24638;DHT22;12773;50.162;8.548;2023-07-09T13:47:53;38.80;44.10
24638;DHT22;12773;50.162;8.548;2023-07-09T13:50:40;38.90;42.90
24638;DHT22;12773;50.162;8.548;2023-07-09T13:53:30;38.70;42.80
24638;DHT22;12773;50.162;8.548;2023-07-09T13:56:18;38.70;43.90
24638;DHT22;12773;50.162;8.548;2023-07-09T13:59:14;38.60;43.70
24638;DHT22;12773;50.162;8.548;2023-07-09T14:02:08;38.60;43.70
24638;DHT22;12773;50.162;8.548;2023-07-09T14:04:52;38.90;44.30
24638;DHT22;12773;50.162;8.548;2023-07-09T14:07:42;39.00;43.00
24638;DHT22;12773;50.162;8.548;2023-07-09T14:10:29;39.00;43.10
24638;DHT22;12773;50.162;8.548;2023-07-09T14:13:19;38.70;42.10
24638;DHT22;12773;50.162;8.548;2023-07-09T14:16:10;38.90;42.70
24638;DHT22;12773;50.162;8.548;2023-07-09T14:18:58;39.00;42.20
24638;DHT22;12773;50.162;8.548;2023-07-09T14:21:46;38.70;41.90
24638;DHT22;12773;50.162;8.548;2023-07-09T14:24:34;38.90;42.40
24638;DHT22;12773;50.162;8.548;2023-07-09T14:27:22;38.90;41.30
24638;DHT22;12773;50.162;8.548;2023-07-09T14:30:15;39.10;41.50
24638;DHT22;12773;50.162;8.548;2023-07-09T14:33:03;38.60;41.00
24638;DHT22;12773;50.162;8.548;2023-07-09T14:35:52;38.70;41.90
24638;DHT22;12773;50.162;8.548;2023-07-09T14:38:39;38.90;41.70
24638;DHT22;12773;50.162;8.548;2023-07-09T14:41:27;38.70;41.50
24638;DHT22;12773;50.162;8.548;2023-07-09T14:44:23;38.70;42.30
24638;DHT22;12773;50.162;8.548;2023-07-09T14:47:17;38.50;41.20
24638;DHT22;12773;50.162;8.548;2023-07-09T14:50:05;38.60;41.50
24638;DHT22;12773;50.162;8.548;2023-07-09T14:52:52;38.60;40.80
24638;DHT22;12773;50.162;8.548;2023-07-09T14:55:40;38.80;40.90
24638;DHT22;12773;50.162;8.548;2023-07-09T14:58:27;38.60;42.00
24638;DHT22;12773;50.162;8.548;2023-07-09T15:01:15;38.50;42.10
24638;DHT22;12773;50.162;8.548;2023-07-09T15:07:13;38.20;41.10
24638;DHT22;12773;50.162;8.548;2023-07-09T15:10:01;38.00;42.10
24638;DHT22;12773;50.162;8.548;2023-07-09T15:12:51;37.90;41.80
24638;DHT22;12773;50.162;8.548;2023-07-09T15:15:39;37.70;42.40
24638;DHT22;12773;50.162;8.548;2023-07-09T15:18:26;38.00;42.40
24638;DHT22;12773;50.162;8.548;2023-07-09T15:21:14;38.10;41.40
24638;DHT22;12773;50.162;8.548;2023-07-09T15:24:02;38.20;41.90
24638;DHT22;12773;50.162;8.548;2023-07-09T15:26:52;38.10;41.70
24638;DHT22;12773;50.162;8.548;2023-07-09T15:29:40;37.90;42.10
24638;DHT22;12773;50.162;8.548;2023-07-09T15:32:27;37.60;42.80
24638;DHT22;12773;50.162;8.548;2023-07-09T15:35:16;37.50;43.30
24638;DHT22;12773;50.162;8.548;2023-07-09T15:41:12;37.40;43.30
24638;DHT22;12773;50.162;8.548;2023-07-09T15:43:57;37.20;43.10
24638;DHT22;12773;50.162;8.548;2023-07-09T15:46:53;37.20;43.10
24638;DHT22;12773;50.162;8.548;2023-07-09T15:49:41;37.20;43.60
24638;DHT22;12773;50.162;8.548;2023-07-09T15:52:29;37.00;43.20
24638;DHT22;12773;50.162;8.548;2023-07-09T15:55:19;36.70;43.30
24638;DHT22;12773;50.162;8.548;2023-07-09T15:58:08;36.60;43.60
24638;DHT22;12773;50.162;8.548;2023-07-09T16:00:57;36.50;44.20
24638;DHT22;12773;50.162;8.548;2023-07-09T16:03:53;36.50;44.30
24638;DHT22;12773;50.162;8.548;2023-07-09T16:06:41;36.40;44.60
24638;DHT22;12773;50.162;8.548;2023-07-09T16:09:28;36.30;44.60
24638;DHT22;12773;50.162;8.548;2023-07-09T16:12:16;36.20;44.90
24638;DHT22;12773;50.162;8.548;2023-07-09T16:15:08;36.10;44.80
24638;DHT22;12773;50.162;8.548;2023-07-09T16:17:53;36.00;44.80
24638;DHT22;12773;50.162;8.548;2023-07-09T16:20:42;35.80;45.00
24638;DHT22;12773;50.162;8.548;2023-07-09T16:23:29;35.80;45.30
24638;DHT22;12773;50.162;8.548;2023-07-09T16:26:17;35.90;45.30
24638;DHT22;12773;50.162;8.548;2023-07-09T16:29:12;35.90;45.40
24638;DHT22;12773;50.162;8.548;2023-07-09T16:31:57;36.10;45.40
24638;DHT22;12773;50.162;8.548;2023-07-09T16:34:45;36.40;46.10
24638;DHT22;12773;50.162;8.548;2023-07-09T16:37:32;36.60;46.40
24638;DHT22;12773;50.162;8.548;2023-07-09T16:40:23;36.60;46.70
24638;DHT22;12773;50.162;8.548;2023-07-09T16:43:21;36.40;46.70
24638;DHT22;12773;50.162;8.548;2023-07-09T16:46:12;36.20;46.70
24638;DHT22;12773;50.162;8.548;2023-07-09T16:48:54;35.90;45.50
24638;DHT22;12773;50.162;8.548;2023-07-09T16:51:42;35.70;45.70
24638;DHT22;12773;50.162;8.548;2023-07-09T16:54:29;35.40;46.10
24638;DHT22;12773;50.162;8.548;2023-07-09T16:57:19;34.90;46.90
24638;DHT22;12773;50.162;8.548;2023-07-09T17:00:20;34.40;47.70
24638;DHT22;12773;50.162;8.548;2023-07-09T17:03:11;34.00;48.70
24638;DHT22;12773;50.162;8.548;2023-07-09T17:05:58;33.70;49.60
24638;DHT22;12773;50.162;8.548;2023-07-09T17:08:45;33.40;50.20
24638;DHT22;12773;50.162;8.548;2023-07-09T17:11:33;33.30;50.50
24638;DHT22;12773;50.162;8.548;2023-07-09T17:14:21;33.10;50.80
24638;DHT22;12773;50.162;8.548;2023-07-09T17:17:13;33.00;51.00
24638;DHT22;12773;50.162;8.548;2023-07-09T17:20:02;32.90;51.00
24638;DHT22;12773;50.162;8.548;2023-07-09T17:22:52;32.90;50.80
24638;DHT22;12773;50.162;8.548;2023-07-09T17:25:40;32.90;51.00
24638;DHT22;12773;50.162;8.548;2023-07-09T17:28:29;33.00;51.00
24638;DHT22;12773;50.162;8.548;2023-07-09T17:31:18;33.20;51.30
24638;DHT22;12773;50.162;8.548;2023-07-09T17:34:05;33.30;51.10
24638;DHT22;12773;50.162;8.548;2023-07-09T17:36:53;33.20;51.50
24638;DHT22;12773;50.162;8.548;2023-07-09T17:39:41;33.20;52.10
24638;DHT22;12773;50.162;8.548;2023-07-09T17:42:29;33.20;52.30
24638;DHT22;12773;50.162;8.548;2023-07-09T17:45:16;32.90;52.70
24638;DHT22;12773;50.162;8.548;2023-07-09T17:48:20;32.70;53.00
24638;DHT22;12773;50.162;8.548;2023-07-09T17:51:04;32.60;53.40
24638;DHT22;12773;50.162;8.548;2023-07-09T17:53:51;32.60;53.20
24638;DHT22;12773;50.162;8.548;2023-07-09T17:56:39;32.70;53.40
24638;DHT22;12773;50.162;8.548;2023-07-09T17:59:30;32.80;53.40
24638;DHT22;12773;50.162;8.548;2023-07-09T18:02:21;32.80;54.70
24638;DHT22;12773;50.162;8.548;2023-07-09T18:05:19;32.80;55.10
24638;DHT22;12773;50.162;8.548;2023-07-09T18:07:59;32.70;55.40
24638;DHT22;12773;50.162;8.548;2023-07-09T18:10:48;32.70;55.60
24638;DHT22;12773;50.162;8.548;2023-07-09T18:13:36;32.70;55.80
24638;DHT22;12773;50.162;8.548;2023-07-09T18:16:23;32.60;55.30
24638;DHT22;12773;50.162;8.548;2023-07-09T18:19:24;32.60;56.10
24638;DHT22;12773;50.162;8.548;2023-07-09T18:22:20;32.50;56.80